createdAt,value
2022-10-11T00:00:46.993Z,7.95
2022-10-11T00:01:47.055Z,7.94
2022-10-11T00:02:46.929Z,7.90
2022-10-11T00:03:46.968Z,7.90
2022-10-11T00:04:46.934Z,7.91
2022-10-11T00:05:46.911Z,7.93
2022-10-11T00:06:46.888Z,7.93
2022-10-11T00:07:46.902Z,7.97
2022-10-11T00:08:46.867Z,7.95
2022-10-11T00:09:46.916Z,7.94
2022-10-11T00:10:46.860Z,7.93
2022-10-11T00:11:46.872Z,7.87
2022-10-11T00:12:46.832Z,7.83
2022-10-11T00:13:46.813Z,7.82
2022-10-11T00:14:46.832Z,7.79
2022-10-11T00:15:46.816Z,7.77
2022-10-11T00:16:46.770Z,7.75
2022-10-11T00:17:46.772Z,7.72
2022-10-11T00:18:46.763Z,7.69
2022-10-11T00:19:46.794Z,7.69
2022-10-11T00:20:46.744Z,7.69
2022-10-11T00:21:46.723Z,7.66
2022-10-11T00:22:46.712Z,7.61
2022-10-11T00:23:46.704Z,7.58
2022-10-11T00:24:46.693Z,7.57
2022-10-11T00:25:46.722Z,7.57
2022-10-11T00:26:47.167Z,7.57
2022-10-11T00:27:46.669Z,7.57
2022-10-11T00:28:46.722Z,7.57
2022-10-11T00:29:46.634Z,7.58
2022-10-11T00:30:46.656Z,7.57
2022-10-11T00:31:46.643Z,7.58
2022-10-11T00:32:46.636Z,7.56
2022-10-11T00:33:46.626Z,7.56
2022-10-11T00:34:46.608Z,7.53
2022-10-11T00:35:46.585Z,7.48
2022-10-11T00:36:46.575Z,7.45
2022-10-11T00:37:46.559Z,7.43
2022-10-11T00:38:47.481Z,7.43
2022-10-11T00:39:46.546Z,7.40
2022-10-11T00:40:46.569Z,7.40
2022-10-11T00:41:46.530Z,7.39
2022-10-11T00:42:46.532Z,7.36
2022-10-11T00:43:46.478Z,7.36
2022-10-11T00:44:46.477Z,7.36
2022-10-11T00:45:46.455Z,7.35
2022-10-11T00:46:46.447Z,7.31
2022-10-11T00:47:46.435Z,7.31
2022-10-11T00:48:46.460Z,7.31
2022-10-11T00:49:46.415Z,7.33
2022-10-11T00:50:46.414Z,7.33
2022-10-11T00:51:46.391Z,7.36
2022-10-11T00:52:46.370Z,7.36
2022-10-11T00:53:46.374Z,7.39
2022-10-11T00:54:46.559Z,7.36
2022-10-11T00:55:46.389Z,7.36
2022-10-11T00:56:46.337Z,7.35
2022-10-11T00:57:46.332Z,7.32
2022-10-11T00:58:46.310Z,7.31
2022-10-11T00:59:46.312Z,7.31
2022-10-11T01:00:46.300Z,7.31
2022-10-11T01:01:46.373Z,7.25
2022-10-11T01:02:46.263Z,7.23
2022-10-11T01:03:46.265Z,7.17
2022-10-11T01:04:46.276Z,7.18
2022-10-11T01:05:47.202Z,7.15
2022-10-11T01:06:46.230Z,7.17
2022-10-11T01:07:46.232Z,7.18
2022-10-11T01:08:46.282Z,7.20
2022-10-11T01:09:46.246Z,7.20
2022-10-11T01:10:46.193Z,7.18
2022-10-11T01:11:46.172Z,7.15
2022-10-11T01:12:46.164Z,7.14
2022-10-11T01:13:46.147Z,7.17
2022-10-11T01:14:46.137Z,7.17
2022-10-11T01:15:46.157Z,7.15
2022-10-11T01:16:46.115Z,7.11
2022-10-11T01:17:46.112Z,7.07
2022-10-11T01:18:46.129Z,7.06
2022-10-11T01:19:46.075Z,7.07
2022-10-11T01:20:46.073Z,7.07
2022-10-11T01:21:46.063Z,7.07
2022-10-11T01:22:46.096Z,7.06
2022-10-11T01:23:46.048Z,7.07
2022-10-11T01:24:46.057Z,7.07
2022-10-11T01:25:46.022Z,7.07
2022-10-11T01:26:46.005Z,7.07
2022-10-11T01:27:46.005Z,7.07
2022-10-11T01:28:46.102Z,7.11
2022-10-11T01:29:45.976Z,7.13
2022-10-11T01:30:45.966Z,7.13
2022-10-11T01:31:45.967Z,7.14
2022-10-11T01:32:45.979Z,7.13
2022-10-11T01:33:45.929Z,7.13
2022-10-11T01:34:46.598Z,7.13
2022-10-11T01:35:45.940Z,7.13
2022-10-11T01:36:45.956Z,7.13
2022-10-11T01:37:45.883Z,7.14
2022-10-11T01:38:46.221Z,7.13
2022-10-11T01:39:45.861Z,7.11
2022-10-11T01:40:45.856Z,7.10
2022-10-11T01:41:45.843Z,7.10
2022-10-11T01:42:45.867Z,7.06
2022-10-11T01:43:45.824Z,7.05
2022-10-11T01:44:45.828Z,7.00
2022-10-11T01:45:45.793Z,6.97
2022-10-11T01:46:45.782Z,6.95
2022-10-11T01:47:45.830Z,6.95
2022-10-11T01:48:45.794Z,6.95
2022-10-11T01:49:45.752Z,6.95
2022-10-11T01:50:45.740Z,6.96
2022-10-11T01:51:47.528Z,6.95
2022-10-11T01:52:45.738Z,6.96
2022-10-11T01:53:45.840Z,6.93
2022-10-11T01:55:08.053Z,6.93
2022-10-11T01:55:46.685Z,6.89
2022-10-11T01:56:45.692Z,6.92
2022-10-11T01:57:45.732Z,6.88
2022-10-11T01:58:45.669Z,6.85
2022-10-11T01:59:45.632Z,6.82
2022-10-11T02:00:45.626Z,6.81
2022-10-11T02:01:45.780Z,6.81
2022-10-11T02:02:45.636Z,6.81
2022-10-11T02:03:45.595Z,6.82
2022-10-11T02:04:45.583Z,6.82
2022-10-11T02:05:45.595Z,6.82
2022-10-11T02:06:45.554Z,6.81
2022-10-11T02:07:45.605Z,6.82
2022-10-11T02:08:45.573Z,6.84
2022-10-11T02:09:45.524Z,6.82
2022-10-11T02:10:45.516Z,6.84
2022-10-11T02:11:45.506Z,6.84
2022-10-11T02:12:45.520Z,6.84
2022-10-11T02:13:45.476Z,6.84
2022-10-11T02:14:45.506Z,6.82
2022-10-11T02:15:45.471Z,6.81
2022-10-11T02:16:45.468Z,6.78
2022-10-11T02:17:45.478Z,6.78
2022-10-11T02:18:45.437Z,6.70
2022-10-11T02:19:45.426Z,6.70
2022-10-11T02:20:45.465Z,6.67
2022-10-11T02:21:45.401Z,6.66
2022-10-11T02:22:45.395Z,6.63
2022-10-11T02:23:45.383Z,6.62
2022-10-11T02:24:45.369Z,6.59
2022-10-11T02:25:45.348Z,6.57
2022-10-11T02:26:45.363Z,6.56
2022-10-11T02:27:45.323Z,6.56
2022-10-11T02:28:45.443Z,6.56
2022-10-11T02:29:45.319Z,6.56
2022-10-11T02:30:45.299Z,6.57
2022-10-11T02:31:45.284Z,6.57
2022-10-11T02:32:45.320Z,6.56
2022-10-11T02:33:45.264Z,6.56
2022-10-11T02:34:45.298Z,6.56
2022-10-11T02:35:45.255Z,6.59
2022-10-11T02:36:45.232Z,6.57
2022-10-11T02:37:45.238Z,6.54
2022-10-11T02:38:45.223Z,6.52
2022-10-11T02:39:45.201Z,6.49
2022-10-11T02:40:45.180Z,6.48
2022-10-11T02:41:45.171Z,6.48
2022-10-11T02:42:45.162Z,6.46
2022-10-11T02:43:45.172Z,6.45
2022-10-11T02:44:45.189Z,6.44
2022-10-11T02:45:45.122Z,6.44
2022-10-11T02:46:45.136Z,6.44
2022-10-11T02:47:45.097Z,6.45
2022-10-11T02:48:45.105Z,6.46
2022-10-11T02:49:45.087Z,6.44
2022-10-11T02:50:45.153Z,6.46
2022-10-11T02:51:45.070Z,6.45
2022-10-11T02:52:45.061Z,6.45
2022-10-11T02:53:45.043Z,6.46
2022-10-11T02:54:45.033Z,6.45
2022-10-11T02:55:45.032Z,6.46
2022-10-11T02:56:45.023Z,6.45
2022-10-11T02:57:44.997Z,6.42
2022-10-11T02:58:45.021Z,6.39
2022-10-11T02:59:44.974Z,6.38
2022-10-11T03:00:44.964Z,6.36
2022-10-11T03:01:44.984Z,6.36
2022-10-11T03:02:44.955Z,6.35
2022-10-11T03:03:44.938Z,6.31
2022-10-11T03:04:44.917Z,6.30
2022-10-11T03:05:44.917Z,6.27
2022-10-11T03:06:44.885Z,6.27
2022-10-11T03:07:44.904Z,6.24
2022-10-11T03:08:44.909Z,6.24
2022-10-11T03:09:44.866Z,6.22
2022-10-11T03:10:44.860Z,6.22
2022-10-11T03:11:44.827Z,6.20
2022-10-11T03:12:44.847Z,6.20
2022-10-11T03:13:44.809Z,6.22
2022-10-11T03:14:44.918Z,6.24
2022-10-11T03:15:44.789Z,6.24
2022-10-11T03:16:44.779Z,6.22
2022-10-11T03:17:44.769Z,6.27
2022-10-11T03:18:44.778Z,6.27
2022-10-11T03:19:44.762Z,6.27
2022-10-11T03:20:44.777Z,6.26
2022-10-11T03:21:44.727Z,6.26
2022-10-11T03:22:44.720Z,6.22
2022-10-11T03:23:44.728Z,6.22
2022-10-11T03:24:44.701Z,6.20
2022-10-11T03:25:44.717Z,6.17
2022-10-11T03:26:44.660Z,6.14
2022-10-11T03:27:44.660Z,6.11
2022-10-11T03:28:44.754Z,6.11
2022-10-11T03:29:44.657Z,6.11
2022-10-11T03:30:44.621Z,6.14
2022-10-11T03:31:44.776Z,6.14
2022-10-11T03:32:44.622Z,6.17
2022-10-11T03:33:44.595Z,6.19
2022-10-11T03:34:44.611Z,6.17
2022-10-11T03:35:44.573Z,6.16
2022-10-11T03:36:44.607Z,6.16
2022-10-11T03:37:44.574Z,6.12
2022-10-11T03:38:44.540Z,6.16
2022-10-11T03:39:44.532Z,6.16
2022-10-11T03:40:44.536Z,6.11
2022-10-11T03:41:44.514Z,6.11
2022-10-11T03:42:44.483Z,6.12
2022-10-11T03:43:44.768Z,6.12
2022-10-11T03:44:44.485Z,6.14
2022-10-11T03:45:44.448Z,6.14
2022-10-11T03:46:44.440Z,6.14
2022-10-11T03:47:44.456Z,6.16
2022-10-11T03:48:44.420Z,6.17
2022-10-11T03:49:44.479Z,6.17
2022-10-11T03:50:44.417Z,6.17
2022-10-11T03:51:44.386Z,6.14
2022-10-11T03:52:44.383Z,6.12
2022-10-11T03:53:44.361Z,6.08
2022-10-11T03:54:44.359Z,6.07
2022-10-11T03:55:44.353Z,6.07
2022-10-11T03:56:44.397Z,6.05
2022-10-11T03:57:44.329Z,6.05
2022-10-11T03:58:44.316Z,6.05
2022-10-11T03:59:44.336Z,6.05
2022-10-11T04:00:44.299Z,6.05
2022-10-11T04:01:44.329Z,6.05
2022-10-11T04:02:44.435Z,6.04
2022-10-11T04:03:44.285Z,6.05
2022-10-11T04:04:44.266Z,6.08
2022-10-11T04:05:44.238Z,6.09
2022-10-11T04:06:44.554Z,6.09
2022-10-11T04:07:44.228Z,6.09
2022-10-11T04:08:44.198Z,6.07
2022-10-11T04:09:44.204Z,6.05
2022-10-11T04:10:44.210Z,6.01
2022-10-11T04:11:44.391Z,5.98
2022-10-11T04:12:44.176Z,5.98
2022-10-11T04:13:44.156Z,5.98
2022-10-11T04:14:44.293Z,5.99
2022-10-11T04:15:44.130Z,5.99
2022-10-11T04:16:44.112Z,6.01
2022-10-11T04:17:44.220Z,6.01
2022-10-11T04:18:44.242Z,5.99
2022-10-11T04:19:44.132Z,5.98
2022-10-11T04:20:44.073Z,5.98
2022-10-11T04:21:44.101Z,5.97
2022-10-11T04:22:44.050Z,5.93
2022-10-11T04:23:44.041Z,5.91
2022-10-11T04:24:44.049Z,5.90
2022-10-11T04:25:44.014Z,5.87
2022-10-11T04:26:44.053Z,5.84
2022-10-11T04:27:43.991Z,5.84
2022-10-11T04:28:44.082Z,5.84
2022-10-11T04:29:44.030Z,5.84
2022-10-11T04:30:43.972Z,5.84
2022-10-11T04:31:43.974Z,5.84
2022-10-11T04:32:43.972Z,5.84
2022-10-11T04:33:43.938Z,5.84
2022-10-11T04:34:43.918Z,5.87
2022-10-11T04:35:43.921Z,5.86
2022-10-11T04:36:47.624Z,5.84
2022-10-11T04:37:45.080Z,5.86
2022-10-11T04:38:43.924Z,5.87
2022-10-11T04:39:44.894Z,5.87
2022-10-11T04:40:43.860Z,5.89
2022-10-11T04:41:43.838Z,5.89
2022-10-11T04:42:43.829Z,5.86
2022-10-11T04:43:43.951Z,5.84
2022-10-11T04:44:43.827Z,5.83
2022-10-11T04:45:43.799Z,5.82
2022-10-11T04:46:43.806Z,5.82
2022-10-11T04:47:43.776Z,5.83
2022-10-11T04:48:43.765Z,5.84
2022-10-11T04:49:43.795Z,5.83
2022-10-11T04:50:43.737Z,5.82
2022-10-11T04:51:43.757Z,5.82
2022-10-11T04:52:43.726Z,5.80
2022-10-11T04:53:43.700Z,5.80
2022-10-11T04:54:43.708Z,5.80
2022-10-11T04:55:43.737Z,5.79
2022-10-11T04:56:43.679Z,5.82
2022-10-11T04:57:43.666Z,5.82
2022-10-11T04:58:43.648Z,5.80
2022-10-11T04:59:47.881Z,5.79
2022-10-11T05:00:44.778Z,5.76
2022-10-11T05:01:43.732Z,5.76
2022-10-11T05:02:44.583Z,5.76
2022-10-11T05:03:43.730Z,5.75
2022-10-11T05:04:43.599Z,5.80
2022-10-11T05:05:43.575Z,5.94
2022-10-11T05:06:43.720Z,6.09
2022-10-11T05:07:43.563Z,6.22
2022-10-11T05:08:43.560Z,6.20
2022-10-11T05:09:43.536Z,6.16
2022-10-11T05:10:43.521Z,6.12
2022-10-11T05:11:43.540Z,6.09
2022-10-11T05:12:43.501Z,6.07
2022-10-11T05:13:43.501Z,6.04
2022-10-11T05:14:43.872Z,6.02
2022-10-11T05:15:43.462Z,6.02
2022-10-11T05:16:43.472Z,6.04
2022-10-11T05:17:43.476Z,6.02
2022-10-11T05:18:43.452Z,6.02
2022-10-11T05:19:43.912Z,6.01
2022-10-11T05:20:48.624Z,5.98
2022-10-11T05:21:43.404Z,5.94
2022-10-11T05:22:43.387Z,5.93
2022-10-11T05:23:43.405Z,5.94
2022-10-11T05:24:43.368Z,5.93
2022-10-11T05:25:43.352Z,5.94
2022-10-11T05:26:43.401Z,5.93
2022-10-11T05:27:43.334Z,5.91
2022-10-11T05:28:43.419Z,5.89
2022-10-11T05:29:43.341Z,5.86
2022-10-11T05:30:43.315Z,5.87
2022-10-11T05:31:43.316Z,5.86
2022-10-11T05:32:43.285Z,5.84
2022-10-11T05:33:43.273Z,5.80
2022-10-11T05:34:43.287Z,5.76
2022-10-11T05:35:43.247Z,5.73
2022-10-11T05:36:43.238Z,5.71
2022-10-11T05:37:43.246Z,5.71
2022-10-11T05:38:43.205Z,5.72
2022-10-11T05:39:43.577Z,5.72
2022-10-11T05:40:43.212Z,5.69
2022-10-11T05:41:43.267Z,5.69
2022-10-11T05:42:43.209Z,5.71
2022-10-11T05:43:43.158Z,5.72
2022-10-11T05:44:43.150Z,5.76
2022-10-11T05:45:43.148Z,5.79
2022-10-11T05:46:43.486Z,5.83
2022-10-11T05:47:43.117Z,5.82
2022-10-11T05:48:43.100Z,5.80
2022-10-11T05:49:43.108Z,5.82
2022-10-11T05:50:43.088Z,5.84
2022-10-11T05:51:43.117Z,5.84
2022-10-11T05:52:43.068Z,5.84
2022-10-11T05:53:43.050Z,5.84
2022-10-11T05:54:43.059Z,5.84
2022-10-11T05:55:43.051Z,5.84
2022-10-11T05:56:43.020Z,5.89
2022-10-11T05:57:43.039Z,5.89
2022-10-11T05:58:43.098Z,5.86
2022-10-11T05:59:43.019Z,5.86
2022-10-11T06:00:42.980Z,5.84
2022-10-11T06:01:43.057Z,5.83
2022-10-11T06:02:42.960Z,5.84
2022-10-11T06:03:42.961Z,5.83
2022-10-11T06:04:42.972Z,5.80
2022-10-11T06:05:42.917Z,5.80
2022-10-11T06:06:42.973Z,5.80
2022-10-11T06:07:42.893Z,5.80
2022-10-11T06:08:42.953Z,5.79
2022-10-11T06:09:42.863Z,5.75
2022-10-11T06:10:42.893Z,5.75
2022-10-11T06:11:42.849Z,5.75
2022-10-11T06:12:42.843Z,5.76
2022-10-11T06:13:42.845Z,5.76
2022-10-11T06:14:42.846Z,5.73
2022-10-11T06:15:42.842Z,5.71
2022-10-11T06:16:42.804Z,5.72
2022-10-11T06:17:42.791Z,5.69
2022-10-11T06:18:42.775Z,5.69
2022-10-11T06:19:42.760Z,5.68
2022-10-11T06:20:42.774Z,5.68
2022-10-11T06:21:42.764Z,5.69
2022-10-11T06:22:42.743Z,5.71
2022-10-11T06:23:42.759Z,5.72
2022-10-11T06:24:42.720Z,5.72
2022-10-11T06:25:42.706Z,5.75
2022-10-11T06:26:42.706Z,5.76
2022-10-11T06:27:42.679Z,5.76
2022-10-11T06:28:42.838Z,5.80
2022-10-11T06:29:42.664Z,5.82
2022-10-11T06:30:42.649Z,5.82
2022-10-11T06:31:42.640Z,5.83
2022-10-11T06:32:43.085Z,5.84
2022-10-11T06:33:42.637Z,5.86
2022-10-11T06:34:42.610Z,5.89
2022-10-11T06:35:42.605Z,5.90
2022-10-11T06:36:42.577Z,5.91
2022-10-11T06:37:42.592Z,5.94
2022-10-11T06:38:45.177Z,5.97
2022-10-11T06:39:42.547Z,5.98
2022-10-11T06:40:42.527Z,5.99
2022-10-11T06:41:42.539Z,6.01
2022-10-11T06:42:42.563Z,6.01
2022-10-11T06:43:42.506Z,6.01
2022-10-11T06:44:42.498Z,6.04
2022-10-11T06:45:42.530Z,6.05
2022-10-11T06:46:42.523Z,6.05
2022-10-11T06:47:42.502Z,6.08
2022-10-11T06:48:42.494Z,6.08
2022-10-11T06:49:43.394Z,6.11
2022-10-11T06:50:59.220Z,6.14
2022-10-11T06:51:43.420Z,6.17
2022-10-11T06:52:42.450Z,6.26
2022-10-11T06:53:42.702Z,6.27
2022-10-11T06:54:45.117Z,6.31
2022-10-11T06:55:42.375Z,6.33
2022-10-11T06:56:42.373Z,6.35
2022-10-11T06:57:42.395Z,6.35
2022-10-11T06:58:42.340Z,6.38
2022-10-11T06:59:42.462Z,6.41
2022-10-11T07:00:42.448Z,6.44
2022-10-11T07:01:42.297Z,6.45
2022-10-11T07:02:42.323Z,6.48
2022-10-11T07:03:42.309Z,6.54
2022-10-11T07:04:42.274Z,6.57
2022-10-11T07:05:42.252Z,6.63
2022-10-11T07:06:42.285Z,6.64
2022-10-11T07:07:42.262Z,6.67
2022-10-11T07:08:42.243Z,6.70
2022-10-11T07:09:42.215Z,6.72
2022-10-11T07:10:43.050Z,6.74
2022-10-11T07:11:42.204Z,6.78
2022-10-11T07:12:42.189Z,6.81
2022-10-11T07:13:42.988Z,6.81
2022-10-11T07:14:43.114Z,6.87
2022-10-11T07:15:42.164Z,6.89
2022-10-11T07:16:42.171Z,6.93
2022-10-11T07:17:42.129Z,6.96
2022-10-11T07:18:42.115Z,6.97
2022-10-11T07:19:42.105Z,7.00
2022-10-11T07:20:42.089Z,7.03
2022-10-11T07:21:42.089Z,7.10
2022-10-11T07:22:42.128Z,7.15
2022-10-11T07:23:42.057Z,7.18
2022-10-11T07:24:42.104Z,7.21
2022-10-11T07:25:42.044Z,7.25
2022-10-11T07:26:42.090Z,7.31
2022-10-11T07:27:42.039Z,7.33
2022-10-11T07:28:42.070Z,7.38
2022-10-11T07:29:42.013Z,7.39
2022-10-11T07:30:41.983Z,7.42
2022-10-11T07:31:42.017Z,7.45
2022-10-11T07:32:41.978Z,7.48
2022-10-11T07:33:42.106Z,7.51
2022-10-11T07:34:41.959Z,7.56
2022-10-11T07:35:45.953Z,7.58
2022-10-11T07:36:42.944Z,7.58
2022-10-11T07:37:41.925Z,7.61
2022-10-11T07:38:41.894Z,7.67
2022-10-11T07:39:41.881Z,7.69
2022-10-11T07:40:41.902Z,7.73
2022-10-11T07:41:45.715Z,7.75
2022-10-11T07:42:41.860Z,7.77
2022-10-11T07:43:41.910Z,7.80
2022-10-11T07:44:41.872Z,7.85
2022-10-11T07:45:41.835Z,7.88
2022-10-11T07:46:41.812Z,7.91
2022-10-11T07:47:41.820Z,7.94
2022-10-11T07:48:41.823Z,7.98
2022-10-11T07:49:41.816Z,8.05
2022-10-11T07:50:41.773Z,8.08
2022-10-11T07:51:41.759Z,8.12
2022-10-11T07:52:41.795Z,8.15
2022-10-11T07:53:41.820Z,8.19
2022-10-11T07:54:41.749Z,8.24
2022-10-11T07:55:41.712Z,8.27
2022-10-11T07:56:41.738Z,8.28
2022-10-11T07:57:41.680Z,8.34
2022-10-11T07:58:41.675Z,8.36
2022-10-11T07:59:41.725Z,8.41
2022-10-11T08:00:41.651Z,8.45
2022-10-11T08:01:41.713Z,8.46
2022-10-11T08:02:41.616Z,8.48
2022-10-11T08:03:41.624Z,8.53
2022-10-11T08:04:41.762Z,8.55
2022-10-11T08:05:41.603Z,8.60
2022-10-11T08:06:41.595Z,8.63
2022-10-11T08:07:41.606Z,8.66
2022-10-11T08:08:41.600Z,8.70
2022-10-11T08:09:41.549Z,8.73
2022-10-11T08:10:41.555Z,8.78
2022-10-11T08:11:41.560Z,8.82
2022-10-11T08:12:41.529Z,8.87
2022-10-11T08:13:41.541Z,8.91
2022-10-11T08:14:41.539Z,8.94
2022-10-11T08:15:41.526Z,8.99
2022-10-11T08:16:41.469Z,9.02
2022-10-11T08:17:41.478Z,9.08
2022-10-11T08:18:41.481Z,9.11
2022-10-11T08:19:41.452Z,9.14
2022-10-11T08:20:41.488Z,9.19
2022-10-11T08:21:41.450Z,9.22
2022-10-11T08:22:41.413Z,9.25
2022-10-11T08:23:41.431Z,9.26
2022-10-11T08:24:41.380Z,9.31
2022-10-11T08:25:41.369Z,9.36
2022-10-11T08:26:41.398Z,9.40
2022-10-11T08:27:41.362Z,9.44
2022-10-11T08:28:41.393Z,9.48
2022-10-11T08:29:41.353Z,9.55
2022-10-11T08:30:41.359Z,9.56
2022-10-11T08:31:41.321Z,9.62
2022-10-11T08:32:41.413Z,9.68
2022-10-11T08:33:41.459Z,9.73
2022-10-11T08:34:41.272Z,9.77
2022-10-11T08:35:41.311Z,9.79
2022-10-11T08:36:41.261Z,9.83
2022-10-11T08:37:41.240Z,9.87
2022-10-11T08:38:41.244Z,9.91
2022-10-11T08:39:41.231Z,9.95
2022-10-11T08:40:41.217Z,9.98
2022-10-11T08:41:41.210Z,10.01
2022-10-11T08:42:41.205Z,10.07
2022-10-11T08:43:41.185Z,10.12
2022-10-11T08:45:08.892Z,10.17
2022-10-11T08:45:42.148Z,10.19
2022-10-11T08:46:41.152Z,10.23
2022-10-11T08:47:41.133Z,10.26
2022-10-11T08:48:41.115Z,10.31
2022-10-11T08:49:41.111Z,10.34
2022-10-11T08:50:41.116Z,10.37
2022-10-11T08:51:41.086Z,10.40
2022-10-11T08:52:41.095Z,10.46
2022-10-11T08:53:41.099Z,10.51
2022-10-11T08:54:41.064Z,10.54
2022-10-11T08:55:41.099Z,10.60
2022-10-11T08:56:41.037Z,10.64
2022-10-11T08:57:41.038Z,10.71
2022-10-11T08:58:41.018Z,10.75
2022-10-11T08:59:41.007Z,10.82
2022-10-11T09:00:40.997Z,10.86
2022-10-11T09:01:41.002Z,10.90
2022-10-11T09:03:06.552Z,10.94
2022-10-11T09:03:41.981Z,10.99
2022-10-11T09:04:40.941Z,11.07
2022-10-11T09:05:40.940Z,11.10
2022-10-11T09:06:40.942Z,11.14
2022-10-11T09:07:40.909Z,11.18
2022-10-11T09:08:40.913Z,11.19
2022-10-11T09:09:41.117Z,11.19
2022-10-11T09:10:40.879Z,11.19
2022-10-11T09:11:40.900Z,11.23
2022-10-11T09:12:41.179Z,11.22
2022-10-11T09:13:40.837Z,11.22
2022-10-11T09:14:40.830Z,11.23
2022-10-11T09:15:40.848Z,11.27
2022-10-11T09:16:40.918Z,11.30
2022-10-11T09:17:40.831Z,11.33
2022-10-11T09:18:40.781Z,11.35
2022-10-11T09:19:40.772Z,11.36
2022-10-11T09:20:41.634Z,11.40
2022-10-11T09:21:40.955Z,11.43
2022-10-11T09:22:40.782Z,11.47
2022-10-11T09:23:40.724Z,11.47
2022-10-11T09:24:40.739Z,11.48
2022-10-11T09:25:40.703Z,11.45
2022-10-11T09:26:40.723Z,11.44
2022-10-11T09:28:01.683Z,11.44
2022-10-11T09:28:41.766Z,11.45
2022-10-11T09:29:40.667Z,11.47
2022-10-11T09:30:40.985Z,11.51
2022-10-11T09:31:40.665Z,11.54
2022-10-11T09:32:40.647Z,11.60
2022-10-11T09:33:40.677Z,11.63
2022-10-11T09:34:40.736Z,11.66
2022-10-11T09:35:41.018Z,11.70
2022-10-11T09:36:40.621Z,11.75
2022-10-11T09:37:40.583Z,11.80
2022-10-11T09:38:40.575Z,11.84
2022-10-11T09:39:40.555Z,11.91
2022-10-11T09:40:40.576Z,11.97
2022-10-11T09:41:40.528Z,12.02
2022-10-11T09:42:40.538Z,12.06
2022-10-11T09:43:40.527Z,12.10
2022-10-11T09:44:40.548Z,12.17
2022-10-11T09:45:44.598Z,12.21
2022-10-11T09:46:41.483Z,12.24
2022-10-11T09:47:40.834Z,12.29
2022-10-11T09:48:40.470Z,12.35
2022-10-11T09:49:40.475Z,12.36
2022-10-11T09:50:40.424Z,12.37
2022-10-11T09:51:40.501Z,12.36
2022-10-11T09:52:40.407Z,12.35
2022-10-11T09:53:40.434Z,12.37
2022-10-11T09:54:41.122Z,12.39
2022-10-11T09:55:40.392Z,12.45
2022-10-11T09:56:40.356Z,12.47
2022-10-11T09:57:40.372Z,12.50
2022-10-11T09:58:40.341Z,12.55
2022-10-11T09:59:40.349Z,12.58
2022-10-11T10:00:40.308Z,12.61
2022-10-11T10:01:41.830Z,12.67
2022-10-11T10:02:40.324Z,12.72
2022-10-11T10:03:40.282Z,12.76
2022-10-11T10:04:40.282Z,12.79
2022-10-11T10:05:40.264Z,12.82
2022-10-11T10:06:40.253Z,12.85
2022-10-11T10:07:40.269Z,12.87
2022-10-11T10:08:40.265Z,12.91
2022-10-11T10:09:40.237Z,12.95
2022-10-11T10:10:41.660Z,12.98
2022-10-11T10:11:40.205Z,13.03
2022-10-11T10:12:40.239Z,13.04
2022-10-11T10:13:40.186Z,13.05
2022-10-11T10:14:40.170Z,13.05
2022-10-11T10:15:40.168Z,13.08
2022-10-11T10:16:40.182Z,13.09
2022-10-11T10:17:40.143Z,13.11
2022-10-11T10:18:40.152Z,13.12
2022-10-11T10:19:44.736Z,13.16
2022-10-11T10:20:41.097Z,13.16
2022-10-11T10:21:40.549Z,13.19
2022-10-11T10:22:40.100Z,13.19
2022-10-11T10:23:40.082Z,13.19
2022-10-11T10:24:40.552Z,13.19
2022-10-11T10:25:43.464Z,13.22
2022-10-11T10:26:41.490Z,13.25
2022-10-11T10:27:40.021Z,13.25
2022-10-11T10:28:40.095Z,13.28
2022-10-11T10:29:40.811Z,13.30
2022-10-11T10:30:40.815Z,13.30
2022-10-11T10:32:01.854Z,13.35
2022-10-11T10:32:43.833Z,13.39
2022-10-11T10:33:41.294Z,13.41
2022-10-11T10:34:39.936Z,13.44
2022-10-11T10:35:41.883Z,13.47
2022-10-11T10:36:40.462Z,13.49
2022-10-11T10:37:40.743Z,13.50
2022-10-11T10:38:40.199Z,13.53
2022-10-11T10:39:40.699Z,13.53
2022-10-11T10:40:41.347Z,13.56
2022-10-11T10:41:39.898Z,13.59
2022-10-11T10:42:40.655Z,13.62
2022-10-11T10:43:40.546Z,13.63
2022-10-11T10:44:39.860Z,13.65
2022-10-11T10:45:40.388Z,13.70
2022-10-11T10:46:39.939Z,13.70
2022-10-11T10:47:39.804Z,13.72
2022-10-11T10:49:18.709Z,13.71
2022-10-11T10:49:53.602Z,13.74
2022-10-11T10:50:42.232Z,13.77
2022-10-11T10:51:39.882Z,13.78
2022-10-11T10:52:39.775Z,13.79
2022-10-11T10:53:41.244Z,13.81
2022-10-11T10:54:39.726Z,13.86
2022-10-11T10:55:39.851Z,13.86
2022-10-11T10:56:41.158Z,13.87
2022-10-11T10:57:39.888Z,13.89
2022-10-11T10:58:39.868Z,13.90
2022-10-11T10:59:39.828Z,13.89
2022-10-11T11:00:40.631Z,13.89
2022-10-11T11:01:39.694Z,13.90
2022-10-11T11:02:41.346Z,13.95
2022-10-11T11:03:40.581Z,13.97
2022-10-11T11:04:39.659Z,14.00
2022-10-11T11:05:40.401Z,14.03
2022-10-11T11:06:39.606Z,14.07
2022-10-11T11:07:41.035Z,14.08
2022-10-11T11:08:39.578Z,14.12
2022-10-11T11:09:39.602Z,14.15
2022-10-11T11:10:40.322Z,14.17
2022-10-11T11:11:39.556Z,14.22
2022-10-11T11:12:39.536Z,14.25
2022-10-11T11:13:40.963Z,14.22
2022-10-11T11:14:40.457Z,14.20
2022-10-11T11:15:39.535Z,14.23
2022-10-11T11:16:39.577Z,14.25
2022-10-11T11:17:39.498Z,14.28
2022-10-11T11:18:39.613Z,14.30
2022-10-11T11:19:39.456Z,14.32
2022-10-11T11:20:39.466Z,14.32
2022-10-11T11:21:41.629Z,14.28
2022-10-11T11:22:39.418Z,14.26
2022-10-11T11:23:39.435Z,14.26
2022-10-11T11:24:39.395Z,14.26
2022-10-11T11:25:43.890Z,14.25
2022-10-11T11:26:44.289Z,14.23
2022-10-11T11:27:39.530Z,14.18
2022-10-11T11:28:39.448Z,14.17
2022-10-11T11:29:40.807Z,14.20
2022-10-11T11:30:39.345Z,14.22
2022-10-11T11:31:39.332Z,14.25
2022-10-11T11:32:44.788Z,14.29
2022-10-11T11:33:41.625Z,14.30
2022-10-11T11:34:39.504Z,14.30
2022-10-11T11:35:40.191Z,14.30
2022-10-11T11:36:39.424Z,14.30
2022-10-11T11:37:40.099Z,14.28
2022-10-11T11:38:43.183Z,14.29
2022-10-11T11:39:39.251Z,14.28
2022-10-11T11:40:39.222Z,14.32
2022-10-11T11:41:39.213Z,14.35
2022-10-11T11:42:39.262Z,14.36
2022-10-11T11:43:39.343Z,14.36
2022-10-11T11:44:39.683Z,14.36
2022-10-11T11:45:39.966Z,14.33
2022-10-11T11:46:39.623Z,14.33
2022-10-11T11:47:39.214Z,14.33
2022-10-11T11:48:39.126Z,14.36
2022-10-11T11:49:39.237Z,14.41
2022-10-11T11:50:39.103Z,14.47
2022-10-11T11:51:39.084Z,14.58
2022-10-11T11:52:39.099Z,14.65
2022-10-11T11:53:39.194Z,14.72
2022-10-11T11:54:39.053Z,14.78
2022-10-11T11:55:39.052Z,14.79
2022-10-11T11:56:39.035Z,14.86
2022-10-11T11:57:39.059Z,14.94
2022-10-11T11:58:39.051Z,15.03
2022-10-11T11:59:39.010Z,15.15
2022-10-11T12:00:39.170Z,15.27
2022-10-11T12:01:39.024Z,15.36
2022-10-11T12:02:39.028Z,15.49
2022-10-11T12:03:41.581Z,15.61
2022-10-11T12:04:38.957Z,15.72
2022-10-11T12:05:38.938Z,15.79
2022-10-11T12:06:47.870Z,15.82
2022-10-11T12:07:39.943Z,15.80
2022-10-11T12:08:38.918Z,15.83
2022-10-11T12:09:38.896Z,15.86
2022-10-11T12:10:38.870Z,15.91
2022-10-11T12:11:38.970Z,15.90
2022-10-11T12:12:38.938Z,15.84
2022-10-11T12:13:38.909Z,15.79
2022-10-11T12:14:38.867Z,15.75
2022-10-11T12:15:38.827Z,15.70
2022-10-11T12:16:38.851Z,15.76
2022-10-11T12:17:38.829Z,15.91
2022-10-11T12:18:42.628Z,15.90
2022-10-11T12:19:38.785Z,15.86
2022-10-11T12:20:38.764Z,15.90
2022-10-11T12:21:39.724Z,15.86
2022-10-11T12:22:38.758Z,15.82
2022-10-11T12:23:38.816Z,15.77
2022-10-11T12:24:38.817Z,15.75
2022-10-11T12:25:38.765Z,15.72
2022-10-11T12:26:38.714Z,15.67
2022-10-11T12:27:38.710Z,15.65
2022-10-11T12:28:38.909Z,15.64
2022-10-11T12:29:38.749Z,15.59
2022-10-11T12:30:38.706Z,15.57
2022-10-11T12:31:45.170Z,15.55
2022-10-11T12:32:39.664Z,15.64
2022-10-11T12:33:40.576Z,15.70
2022-10-11T12:34:38.606Z,15.75
2022-10-11T12:35:39.549Z,15.79
2022-10-11T12:36:38.606Z,15.80
2022-10-11T12:37:39.524Z,15.82
2022-10-11T12:38:38.652Z,15.82
2022-10-11T12:39:39.507Z,15.90
2022-10-11T12:40:38.537Z,15.95
2022-10-11T12:41:38.862Z,16.01
2022-10-11T12:42:38.520Z,16.00
2022-10-11T12:43:38.519Z,15.98
2022-10-11T12:44:38.504Z,15.97
2022-10-11T12:45:38.539Z,16.02
2022-10-11T12:46:38.483Z,16.09
2022-10-11T12:47:38.470Z,16.15
2022-10-11T12:48:40.912Z,16.23
2022-10-11T12:49:38.482Z,16.31
2022-10-11T12:50:38.435Z,16.38
2022-10-11T12:51:38.457Z,16.46
2022-10-11T12:52:38.497Z,16.53
2022-10-11T12:53:38.440Z,16.54
2022-10-11T12:54:38.664Z,16.57
2022-10-11T12:55:40.342Z,16.65
2022-10-11T12:56:38.375Z,16.69
2022-10-11T12:57:41.435Z,16.75
2022-10-11T12:58:39.641Z,16.68
2022-10-11T12:59:38.377Z,16.61
2022-10-11T13:00:38.362Z,16.54
2022-10-11T13:01:38.363Z,16.43
2022-10-11T13:02:38.307Z,16.36
2022-10-11T13:03:38.754Z,16.26
2022-10-11T13:04:38.289Z,16.17
2022-10-11T13:05:40.910Z,16.13
2022-10-11T13:06:39.266Z,16.04
2022-10-11T13:07:38.827Z,15.95
2022-10-11T13:08:38.247Z,15.88
2022-10-11T13:09:38.252Z,15.82